Time;durP1;ratioP1;P1;durP2;ratioP2;P2;SDS_P1;SDS_P2;PMS_P1;PMS_P2;Temp;Humidity;BMP_temperature;BMP_pressure;BME280_temperature;BME280_humidity;BME280_pressure;Samples;Min_cycle;Max_cycle;Signal;HPM_P1;HPM_P2
2022/03/04 00:01:26;;;;;;;;;;;-1.20;99.90;;;;;;4997113;28;19925;-86
2022/03/04 00:03:51;;;;;;;;;;;-1.20;99.90;;;;;;5010805;28;19924;-86
2022/03/04 00:06:17;;;;;;;;;;;-1.20;99.90;;;;;;5018654;28;19913;-87
2022/03/04 00:08:43;;;;;;;;;;;-1.20;99.90;;;;;;5015225;28;19913;-86
2022/03/04 00:11:08;;;;;;;;;;;-1.20;99.90;;;;;;4998787;28;19918;-86
2022/03/04 00:13:34;;;;;;;;;;;-1.20;99.90;;;;;;5015201;28;20422;-87
2022/03/04 00:16:00;;;;;;;;;;;-1.20;99.90;;;;;;5015506;28;19921;-86
2022/03/04 00:18:26;;;;;;;;;;;-1.20;99.90;;;;;;5031122;28;19921;-86
2022/03/04 00:20:52;;;;;;;;;;;-1.20;99.90;;;;;;5006813;28;19918;-86
2022/03/04 00:23:18;;;;;;;;;;;-1.20;99.90;;;;;;5014044;28;20107;-84
2022/03/04 00:25:44;;;;;;;;;;;-1.20;99.90;;;;;;5018533;28;19913;-86
2022/03/04 00:28:10;;;;;;;;;;;-1.30;99.90;;;;;;5015377;28;20004;-86
2022/03/04 00:30:35;;;;;;;;;;;-1.30;99.90;;;;;;5009241;28;19914;-86
2022/03/04 00:33:01;;;;;;;;;;;-1.30;99.90;;;;;;5000881;28;19925;-86
2022/03/04 00:35:27;;;;;;;;;;;-1.30;99.90;;;;;;4995540;28;19976;-86
2022/03/04 00:37:52;;;;;;;;;;;-1.30;99.90;;;;;;5006419;28;19924;-86
2022/03/04 00:40:18;;;;;;;;;;;-1.40;99.90;;;;;;5012177;28;19969;-86
2022/03/04 00:42:44;;;;;;;;;;;-1.40;99.90;;;;;;5025815;28;19910;-86
2022/03/04 00:45:10;;;;;;;;;;;-1.40;99.90;;;;;;5020374;28;19940;-86
2022/03/04 00:47:35;;;;;;;;;;;-1.40;99.90;;;;;;5014638;28;20311;-86
2022/03/04 00:50:02;;;;;;;;;;;-1.50;99.90;;;;;;4998133;28;19917;-86
2022/03/04 00:52:28;;;;;;;;;;;-1.50;99.90;;;;;;5009543;28;20092;-87
2022/03/04 00:54:53;;;;;;;;;;;-1.50;99.90;;;;;;5012058;28;19917;-86
2022/03/04 00:57:19;;;;;;;;;;;-1.50;99.90;;;;;;4998201;28;19913;-86
2022/03/04 00:59:45;;;;;;;;;;;-1.50;99.90;;;;;;5012435;28;19928;-86
2022/03/04 01:02:11;;;;;;;;;;;-1.50;99.90;;;;;;5031840;28;20379;-85
2022/03/04 01:04:36;;;;;;;;;;;-1.60;99.90;;;;;;5031961;28;19913;-86
2022/03/04 01:07:02;;;;;;;;;;;-1.60;99.90;;;;;;5013153;28;20047;-86
2022/03/04 01:09:28;;;;;;;;;;;-1.60;99.90;;;;;;5011503;28;19939;-86
2022/03/04 01:11:53;;;;;;;;;;;-1.60;99.90;;;;;;5014876;28;19919;-86
2022/03/04 01:14:19;;;;;;;;;;;-1.60;99.90;;;;;;5015602;28;19913;-85
2022/03/04 01:16:45;;;;;;;;;;;-1.60;99.90;;;;;;4995060;28;19925;-86
2022/03/04 01:19:10;;;;;;;;;;;-1.60;99.90;;;;;;4978543;28;19921;-86
2022/03/04 01:21:36;;;;;;;;;;;-1.60;99.90;;;;;;5022384;28;20292;-86
2022/03/04 01:24:02;;;;;;;;;;;-1.60;99.90;;;;;;5031470;28;19913;-86
2022/03/04 01:26:27;;;;;;;;;;;-1.70;99.90;;;;;;5023596;28;19918;-86
2022/03/04 01:28:53;;;;;;;;;;;-1.70;99.90;;;;;;5027457;28;19921;-86
2022/03/04 01:31:19;;;;;;;;;;;-1.70;99.90;;;;;;5014323;28;19929;-86
2022/03/04 01:33:44;;;;;;;;;;;-1.70;99.90;;;;;;5014893;28;19959;-87
2022/03/04 01:36:10;;;;;;;;;;;-1.80;99.90;;;;;;5014368;28;19943;-86
2022/03/04 01:38:36;;;;;;;;;;;-1.80;99.90;;;;;;5009098;28;19920;-86
2022/03/04 01:41:02;;;;;;;;;;;-1.80;99.90;;;;;;5014683;28;19963;-86
2022/03/04 01:43:28;;;;;;;;;;;-1.80;99.90;;;;;;5029999;28;20005;-86
2022/03/04 01:45:53;;;;;;;;;;;-1.80;99.90;;;;;;5027413;28;19956;-87
2022/03/04 01:48:20;;;;;;;;;;;-1.80;99.90;;;;;;5014510;28;20024;-86
2022/03/04 01:50:50;;;;;;;;;;;-1.80;99.90;;;;;;5014879;28;19924;-86
2022/03/04 01:53:16;;;;;;;;;;;-1.80;99.90;;;;;;5031791;28;20379;-87
2022/03/04 01:55:41;;;;;;;;;;;-1.80;99.90;;;;;;5029987;28;19921;-85
2022/03/04 01:58:07;;;;;;;;;;;-1.80;99.90;;;;;;5028737;28;19917;-87
2022/03/04 02:00:33;;;;;;;;;;;-1.90;99.90;;;;;;4989829;28;20392;-87
2022/03/04 02:03:00;;;;;;;;;;;-1.90;99.90;;;;;;5020861;28;19914;-86
2022/03/04 02:05:26;;;;;;;;;;;-2.00;99.90;;;;;;5028063;28;19921;-87
2022/03/04 02:07:52;;;;;;;;;;;-2.00;99.90;;;;;;5031101;28;19917;-86
2022/03/04 02:10:17;;;;;;;;;;;-2.10;99.90;;;;;;5013661;28;19913;-87
2022/03/04 02:12:43;;;;;;;;;;;-2.10;99.90;;;;;;5013360;28;19921;-87
2022/03/04 02:15:09;;;;;;;;;;;-2.10;99.90;;;;;;4995235;28;19918;-87
2022/03/04 02:17:35;;;;;;;;;;;-2.10;99.90;;;;;;5011926;28;20003;-86
2022/03/04 02:20:03;;;;;;;;;;;-2.10;99.90;;;;;;5013398;28;19909;-88
2022/03/04 02:22:29;;;;;;;;;;;-2.10;99.90;;;;;;5011220;28;19995;-87
2022/03/04 02:24:54;;;;;;;;;;;-2.10;99.90;;;;;;4978878;28;19921;-86
2022/03/04 02:27:20;;;;;;;;;;;-2.10;99.90;;;;;;5006756;28;19921;-86
2022/03/04 02:29:46;;;;;;;;;;;-2.10;99.90;;;;;;4994098;28;19925;-87
2022/03/04 02:32:11;;;;;;;;;;;-2.10;99.90;;;;;;4994206;28;20327;-86
2022/03/04 02:34:37;;;;;;;;;;;-2.10;99.90;;;;;;5019498;28;19972;-86
2022/03/04 02:37:03;;;;;;;;;;;-2.20;99.90;;;;;;5029194;28;20258;-85
2022/03/04 02:39:28;;;;;;;;;;;-2.10;99.90;;;;;;4997098;28;20376;-87
2022/03/04 02:41:54;;;;;;;;;;;-2.20;99.90;;;;;;4996794;28;19917;-87
2022/03/04 02:44:19;;;;;;;;;;;-2.20;99.90;;;;;;5013404;28;19917;-86
2022/03/04 02:46:45;;;;;;;;;;;-2.20;99.90;;;;;;5013085;28;19921;-87
2022/03/04 02:49:11;;;;;;;;;;;-2.20;99.90;;;;;;5001771;28;20339;-86
2022/03/04 02:51:37;;;;;;;;;;;-2.20;99.90;;;;;;5012343;28;20358;-87
2022/03/04 02:54:03;;;;;;;;;;;-2.10;99.90;;;;;;5011709;28;20470;-87
2022/03/04 02:56:29;;;;;;;;;;;-2.10;99.90;;;;;;5029960;28;19917;-86
2022/03/04 02:58:54;;;;;;;;;;;-2.10;99.90;;;;;;5010350;28;19944;-86
2022/03/04 03:01:20;;;;;;;;;;;-2.10;99.90;;;;;;5029519;28;20360;-87
2022/03/04 03:03:47;;;;;;;;;;;-2.10;99.90;;;;;;5010153;28;19925;-86
2022/03/04 03:06:12;;;;;;;;;;;-2.10;99.90;;;;;;5003924;28;19913;-86
2022/03/04 03:08:38;;;;;;;;;;;-2.20;99.90;;;;;;5011309;28;19917;-86
2022/03/04 03:11:04;;;;;;;;;;;-2.20;99.90;;;;;;5029716;28;19913;-86
2022/03/04 03:13:30;;;;;;;;;;;-2.20;99.90;;;;;;5013565;28;19924;-87
2022/03/04 03:15:56;;;;;;;;;;;-2.20;99.90;;;;;;5012811;28;19914;-86
2022/03/04 03:18:22;;;;;;;;;;;-2.20;99.90;;;;;;4996480;28;19917;-87
2022/03/04 03:20:47;;;;;;;;;;;-2.30;99.90;;;;;;5007989;28;19914;-87
2022/03/04 03:23:13;;;;;;;;;;;-2.30;99.90;;;;;;5009685;28;19964;-87
2022/03/04 03:25:38;;;;;;;;;;;-2.30;99.90;;;;;;5018724;28;19920;-87
2022/03/04 03:28:04;;;;;;;;;;;-2.30;99.90;;;;;;5009317;28;20563;-86
2022/03/04 03:30:30;;;;;;;;;;;-2.40;99.90;;;;;;4988329;28;19971;-87
2022/03/04 03:32:56;;;;;;;;;;;-2.30;99.90;;;;;;5013211;28;19932;-87
2022/03/04 03:35:22;;;;;;;;;;;-2.40;99.90;;;;;;5005387;28;19968;-86
2022/03/04 03:37:47;;;;;;;;;;;-2.40;99.90;;;;;;5011262;28;20011;-86
2022/03/04 03:40:13;;;;;;;;;;;-2.40;99.90;;;;;;5029204;28;20035;-86
2022/03/04 03:42:42;;;;;;;;;;;-2.40;99.90;;;;;;5029427;28;19928;-87
2022/03/04 03:45:08;;;;;;;;;;;-2.40;99.90;;;;;;5029629;28;19982;-87
2022/03/04 03:47:34;;;;;;;;;;;-2.40;99.90;;;;;;5011980;28;20012;-87
2022/03/04 03:49:59;;;;;;;;;;;-2.40;99.90;;;;;;5012779;28;19998;-86
2022/03/04 03:52:25;;;;;;;;;;;-2.40;99.90;;;;;;5012963;28;20438;-87
2022/03/04 03:54:51;;;;;;;;;;;-2.40;99.90;;;;;;5011791;28;19917;-86
2022/03/04 03:57:16;;;;;;;;;;;-2.40;99.90;;;;;;5008921;28;20458;-87
2022/03/04 03:59:42;;;;;;;;;;;-2.50;99.90;;;;;;5012916;28;19920;-87
2022/03/04 04:02:08;;;;;;;;;;;-2.50;99.90;;;;;;5012826;28;20338;-87
2022/03/04 04:04:34;;;;;;;;;;;-2.60;99.90;;;;;;5030823;28;19917;-87
2022/03/04 04:07:03;;;;;;;;;;;-2.60;99.90;;;;;;5014876;28;19979;-87
2022/03/04 04:09:29;;;;;;;;;;;-2.60;99.90;;;;;;5016465;28;19971;-87
2022/03/04 04:11:54;;;;;;;;;;;-2.70;99.90;;;;;;5003527;28;19925;-87
2022/03/04 04:14:20;;;;;;;;;;;-2.70;99.90;;;;;;4997023;28;20430;-86
2022/03/04 04:16:46;;;;;;;;;;;-2.70;99.90;;;;;;5023827;28;19964;-87
2022/03/04 04:19:12;;;;;;;;;;;-2.70;99.90;;;;;;5014539;28;19917;-87
2022/03/04 04:21:37;;;;;;;;;;;-2.80;99.90;;;;;;5016315;28;20017;-87
2022/03/04 04:24:03;;;;;;;;;;;-2.80;99.90;;;;;;5016372;28;20015;-87
2022/03/04 04:26:29;;;;;;;;;;;-2.80;99.90;;;;;;4999352;28;19917;-87
2022/03/04 04:28:54;;;;;;;;;;;-2.80;99.90;;;;;;5032196;28;19913;-86
2022/03/04 04:31:20;;;;;;;;;;;-2.80;99.90;;;;;;5014541;28;19913;-87
2022/03/04 04:33:46;;;;;;;;;;;-2.80;99.90;;;;;;5015940;28;19957;-88
2022/03/04 04:36:11;;;;;;;;;;;-2.80;99.90;;;;;;4999443;28;19921;-87
2022/03/04 04:38:37;;;;;;;;;;;-2.80;99.90;;;;;;5015042;28;19975;-86
2022/03/04 04:41:03;;;;;;;;;;;-2.70;99.90;;;;;;5012386;28;19913;-87
2022/03/04 04:43:28;;;;;;;;;;;-2.70;99.90;;;;;;5004637;28;20512;-87
2022/03/04 04:45:54;;;;;;;;;;;-2.70;99.90;;;;;;5011985;28;19924;-87
2022/03/04 04:48:19;;;;;;;;;;;-2.60;99.90;;;;;;4999170;28;19923;-87
2022/03/04 04:50:45;;;;;;;;;;;-2.60;99.90;;;;;;5015693;28;19921;-86
2022/03/04 04:53:11;;;;;;;;;;;-2.60;99.90;;;;;;5027409;28;20091;-86
2022/03/04 04:55:36;;;;;;;;;;;-2.60;99.90;;;;;;5014886;28;20050;-87
2022/03/04 04:58:02;;;;;;;;;;;-2.60;99.90;;;;;;5031873;28;19963;-87
2022/03/04 05:00:28;;;;;;;;;;;-2.70;99.90;;;;;;5014783;28;19936;-87
2022/03/04 05:02:53;;;;;;;;;;;-2.70;99.90;;;;;;5015456;28;19917;-87
2022/03/04 05:05:19;;;;;;;;;;;-2.70;99.90;;;;;;5018769;28;19918;-86
2022/03/04 05:07:48;;;;;;;;;;;-2.70;99.90;;;;;;5014347;28;19939;-85
2022/03/04 05:10:13;;;;;;;;;;;-2.80;99.90;;;;;;5013754;28;20022;-86
2022/03/04 05:12:40;;;;;;;;;;;-2.70;99.90;;;;;;4997389;28;20372;-85
2022/03/04 05:15:06;;;;;;;;;;;-2.80;99.90;;;;;;5015001;28;19917;-86
2022/03/04 05:17:32;;;;;;;;;;;-2.80;99.90;;;;;;5011621;28;19913;-86
2022/03/04 05:19:57;;;;;;;;;;;-2.80;99.90;;;;;;5015045;28;19917;-86
2022/03/04 05:22:23;;;;;;;;;;;-2.80;99.90;;;;;;5015097;28;19917;-87
2022/03/04 05:24:48;;;;;;;;;;;-2.80;99.90;;;;;;5015149;28;19999;-87
2022/03/04 05:27:14;;;;;;;;;;;-2.80;99.90;;;;;;4997389;28;19917;-86
2022/03/04 05:29:40;;;;;;;;;;;-2.80;99.90;;;;;;5014653;28;19959;-87
2022/03/04 05:32:06;;;;;;;;;;;-2.80;99.90;;;;;;5031366;28;20635;-87
2022/03/04 05:34:31;;;;;;;;;;;-2.80;99.90;;;;;;5013693;28;20008;-87
2022/03/04 05:36:57;;;;;;;;;;;-2.80;99.90;;;;;;5014396;28;19924;-87
2022/03/04 05:39:22;;;;;;;;;;;-2.80;99.90;;;;;;5029366;28;19913;-85
2022/03/04 05:41:48;;;;;;;;;;;-2.80;99.90;;;;;;5031235;28;19921;-87
2022/03/04 05:44:14;;;;;;;;;;;-2.80;99.90;;;;;;4998576;28;20443;-88
2022/03/04 05:46:39;;;;;;;;;;;-2.80;99.90;;;;;;5014012;28;19952;-87
2022/03/04 05:49:05;;;;;;;;;;;-2.80;99.90;;;;;;5013646;28;20007;-87
2022/03/04 05:51:31;;;;;;;;;;;-2.80;99.90;;;;;;5011633;28;20079;-87
2022/03/04 05:53:56;;;;;;;;;;;-2.80;99.90;;;;;;5014792;28;20463;-86
2022/03/04 05:56:22;;;;;;;;;;;-2.80;99.90;;;;;;4997116;28;20057;-87
2022/03/04 05:58:48;;;;;;;;;;;-2.80;99.90;;;;;;4996873;28;20398;-87
2022/03/04 06:01:13;;;;;;;;;;;-2.80;99.90;;;;;;5010933;28;19913;-87
2022/03/04 06:03:39;;;;;;;;;;;-2.80;99.90;;;;;;5014389;28;19919;-87
2022/03/04 06:06:05;;;;;;;;;;;-2.80;99.90;;;;;;5013635;28;20009;-86
2022/03/04 06:08:31;;;;;;;;;;;-2.80;99.90;;;;;;5030519;28;19928;-87
2022/03/04 06:10:57;;;;;;;;;;;-2.80;99.90;;;;;;5027378;28;19913;-86
2022/03/04 06:13:22;;;;;;;;;;;-2.80;99.90;;;;;;5013093;28;19944;-88
2022/03/04 06:15:48;;;;;;;;;;;-2.80;99.90;;;;;;5029023;28;19920;-87
2022/03/04 06:18:15;;;;;;;;;;;-2.80;99.90;;;;;;4986916;28;19917;-86
2022/03/04 06:20:40;;;;;;;;;;;-2.70;99.90;;;;;;5012954;28;20372;-87
2022/03/04 06:23:06;;;;;;;;;;;-2.70;99.90;;;;;;5030295;28;19920;-87
2022/03/04 06:25:32;;;;;;;;;;;-2.70;99.90;;;;;;5000508;28;20016;-85
2022/03/04 06:27:58;;;;;;;;;;;-2.70;99.90;;;;;;5023455;28;20597;-87
2022/03/04 06:30:25;;;;;;;;;;;-2.70;99.90;;;;;;5013674;28;19980;-86
2022/03/04 06:32:51;;;;;;;;;;;-2.50;99.90;;;;;;5013927;28;19917;-87
2022/03/04 06:35:17;;;;;;;;;;;-2.50;99.90;;;;;;5011519;28;19913;-87
2022/03/04 06:37:43;;;;;;;;;;;-2.50;99.90;;;;;;5028083;28;20024;-87
2022/03/04 06:40:09;;;;;;;;;;;-2.40;99.90;;;;;;5013216;28;19958;-87
2022/03/04 06:42:35;;;;;;;;;;;-2.40;99.90;;;;;;5030325;28;19913;-86
2022/03/04 06:45:01;;;;;;;;;;;-2.40;99.90;;;;;;5013287;28;19963;-85
2022/03/04 06:47:26;;;;;;;;;;;-2.30;99.90;;;;;;5011666;28;19964;-87
2022/03/04 06:49:52;;;;;;;;;;;-2.20;99.90;;;;;;5008421;28;20562;-87
2022/03/04 06:52:18;;;;;;;;;;;-2.20;99.90;;;;;;5010125;28;19925;-87
2022/03/04 06:54:44;;;;;;;;;;;-2.20;99.90;;;;;;5013762;28;19975;-87
2022/03/04 06:57:09;;;;;;;;;;;-2.10;99.90;;;;;;5003931;28;20383;-86
2022/03/04 06:59:35;;;;;;;;;;;-1.90;99.90;;;;;;4988026;28;20016;-86
2022/03/04 07:02:01;;;;;;;;;;;-1.70;99.90;;;;;;5013254;28;19918;-86
2022/03/04 07:04:26;;;;;;;;;;;-1.50;99.90;;;;;;5029741;28;19913;-86
2022/03/04 07:06:52;;;;;;;;;;;-1.30;99.90;;;;;;5011559;28;19928;-87
2022/03/04 07:09:17;;;;;;;;;;;-1.00;99.90;;;;;;5027263;28;19921;-87
2022/03/04 07:11:43;;;;;;;;;;;-0.70;99.90;;;;;;4996580;28;19921;-87
2022/03/04 07:14:09;;;;;;;;;;;-0.40;99.90;;;;;;5009538;28;19914;-88
2022/03/04 07:16:35;;;;;;;;;;;-0.10;99.90;;;;;;5020547;28;19924;-85
2022/03/04 07:19:01;;;;;;;;;;;0.10;99.90;;;;;;5008405;28;20021;-87
2022/03/04 07:21:27;;;;;;;;;;;0.40;99.90;;;;;;4996838;28;19979;-86
2022/03/04 07:23:54;;;;;;;;;;;0.60;99.90;;;;;;5010726;28;20387;-85
2022/03/04 07:26:23;;;;;;;;;;;0.90;99.90;;;;;;5008768;28;19913;-88
2022/03/04 07:28:50;;;;;;;;;;;1.10;99.90;;;;;;5020205;28;19917;-88
2022/03/04 07:31:18;;;;;;;;;;;1.30;99.90;;;;;;5004196;28;19914;-88
2022/03/04 07:33:43;;;;;;;;;;;1.50;99.90;;;;;;5010284;28;20292;-89
2022/03/04 07:36:09;;;;;;;;;;;1.60;99.90;;;;;;5028786;28;19920;-90
2022/03/04 07:38:34;;;;;;;;;;;1.70;99.90;;;;;;5008281;28;20006;-89
2022/03/04 07:41:00;;;;;;;;;;;1.80;99.90;;;;;;5012789;28;20376;-88
2022/03/04 07:43:26;;;;;;;;;;;1.80;99.90;;;;;;5016568;28;19929;-87
2022/03/04 07:45:52;;;;;;;;;;;1.80;99.90;;;;;;5007437;28;20295;-86
2022/03/04 07:48:18;;;;;;;;;;;1.90;99.90;;;;;;4996892;28;19918;-89
2022/03/04 07:50:43;;;;;;;;;;;1.90;99.90;;;;;;5007631;28;19913;-89
2022/03/04 07:53:09;;;;;;;;;;;1.90;99.90;;;;;;5033681;28;20011;-88
2022/03/04 07:55:34;;;;;;;;;;;1.90;99.90;;;;;;5014756;28;20331;-87
2022/03/04 07:58:00;;;;;;;;;;;1.90;99.90;;;;;;5014937;28;19913;-88
2022/03/04 08:00:26;;;;;;;;;;;1.90;99.90;;;;;;5032635;28;20374;-88
2022/03/04 08:02:52;;;;;;;;;;;1.90;99.90;;;;;;5010574;28;20281;-86
2022/03/04 08:05:18;;;;;;;;;;;1.90;99.90;;;;;;5029630;28;19917;-88
2022/03/04 08:07:44;;;;;;;;;;;1.80;99.90;;;;;;5032589;28;19917;-87
2022/03/04 08:10:11;;;;;;;;;;;1.80;99.90;;;;;;5015344;28;19917;-86
2022/03/04 08:12:37;;;;;;;;;;;1.70;99.90;;;;;;5030791;28;19924;-86
2022/03/04 08:15:07;;;;;;;;;;;1.70;99.90;;;;;;5014446;28;19920;-88
2022/03/04 08:17:32;;;;;;;;;;;1.60;99.90;;;;;;5013597;28;20389;-87
2022/03/04 08:19:58;;;;;;;;;;;1.60;99.90;;;;;;5013832;28;19913;-86
2022/03/04 08:22:24;;;;;;;;;;;1.60;99.90;;;;;;5033672;28;19951;-87
2022/03/04 08:24:51;;;;;;;;;;;1.50;99.90;;;;;;5032581;28;19917;-86
2022/03/04 08:27:17;;;;;;;;;;;1.50;99.90;;;;;;5032716;28;20342;-87
2022/03/04 08:29:43;;;;;;;;;;;1.50;99.90;;;;;;5032723;28;19975;-87
2022/03/04 08:32:08;;;;;;;;;;;1.50;99.90;;;;;;5000025;28;19971;-88
2022/03/04 08:34:34;;;;;;;;;;;1.40;99.90;;;;;;5002310;28;19917;-86
2022/03/04 08:37:00;;;;;;;;;;;1.40;99.90;;;;;;5011928;28;19921;-87
2022/03/04 08:39:26;;;;;;;;;;;1.40;99.90;;;;;;5010235;28;20318;-87
2022/03/04 08:41:52;;;;;;;;;;;1.40;99.90;;;;;;5027796;28;19913;-87
2022/03/04 08:44:18;;;;;;;;;;;1.40;99.90;;;;;;5007664;28;19913;-87
2022/03/04 08:46:43;;;;;;;;;;;1.40;99.90;;;;;;5009781;28;19913;-88
2022/03/04 08:49:09;;;;;;;;;;;1.30;99.90;;;;;;4994397;28;19917;-88
2022/03/04 08:51:36;;;;;;;;;;;1.30;99.90;;;;;;5012041;28;19928;-86
2022/03/04 08:54:02;;;;;;;;;;;1.30;99.90;;;;;;5014501;28;19913;-87
2022/03/04 08:56:28;;;;;;;;;;;1.40;99.90;;;;;;5013387;28;19975;-88
2022/03/04 08:58:53;;;;;;;;;;;1.50;99.90;;;;;;5009127;28;20411;-87
2022/03/04 09:01:19;;;;;;;;;;;1.50;99.90;;;;;;5027919;28;19913;-87
2022/03/04 09:03:45;;;;;;;;;;;1.60;99.90;;;;;;5020939;28;19983;-88
2022/03/04 09:06:11;;;;;;;;;;;1.60;99.90;;;;;;5011751;28;20364;-89
2022/03/04 09:08:37;;;;;;;;;;;1.70;99.90;;;;;;5025680;28;20008;-92
2022/03/04 09:11:03;;;;;;;;;;;1.70;99.90;;;;;;5009845;28;20056;-88
2022/03/04 09:13:28;;;;;;;;;;;1.60;99.90;;;;;;5008537;28;19918;-88
2022/03/04 09:15:54;;;;;;;;;;;1.70;99.90;;;;;;4995837;28;20372;-87
2022/03/04 09:18:20;;;;;;;;;;;1.70;99.90;;;;;;5024481;28;20083;-87
2022/03/04 09:20:46;;;;;;;;;;;1.70;99.90;;;;;;5005302;28;19924;-89
2022/03/04 09:23:11;;;;;;;;;;;1.70;99.90;;;;;;5009082;28;19948;-87
2022/03/04 09:25:37;;;;;;;;;;;1.70;99.90;;;;;;5006673;28;20008;-88
2022/03/04 09:28:03;;;;;;;;;;;1.70;99.90;;;;;;5006438;28;19921;-88
2022/03/04 09:30:31;;;;;;;;;;;1.80;99.90;;;;;;5011322;28;19913;-88
2022/03/04 09:32:56;;;;;;;;;;;2.00;99.90;;;;;;5012350;28;19921;-88
2022/03/04 09:35:23;;;;;;;;;;;2.20;99.90;;;;;;5006137;28;19952;-87
2022/03/04 09:37:48;;;;;;;;;;;2.20;99.90;;;;;;5005691;28;19961;-88
2022/03/04 09:40:14;;;;;;;;;;;2.20;99.90;;;;;;5008587;28;19914;-88
2022/03/04 09:42:40;;;;;;;;;;;2.30;99.90;;;;;;5012093;28;19913;-88
2022/03/04 09:45:06;;;;;;;;;;;2.40;99.90;;;;;;5008700;28;20384;-87
2022/03/04 09:47:32;;;;;;;;;;;2.40;99.90;;;;;;5019903;28;19920;-90
2022/03/04 09:49:58;;;;;;;;;;;2.50;99.90;;;;;;5009693;28;19921;-87
2022/03/04 09:52:24;;;;;;;;;;;2.50;99.90;;;;;;5030250;28;19924;-88
2022/03/04 09:54:50;;;;;;;;;;;2.50;99.90;;;;;;5015002;28;19912;-88
2022/03/04 09:57:17;;;;;;;;;;;2.40;99.90;;;;;;5027908;28;19956;-87
2022/03/04 09:59:43;;;;;;;;;;;2.40;99.90;;;;;;5011746;28;19910;-88
2022/03/04 10:02:10;;;;;;;;;;;2.40;99.90;;;;;;5031615;28;19913;-88
2022/03/04 10:04:38;;;;;;;;;;;2.40;99.90;;;;;;5030291;28;20391;-88
2022/03/04 10:07:09;;;;;;;;;;;2.40;99.90;;;;;;5024592;28;20004;-86
2022/03/04 10:09:41;;;;;;;;;;;2.50;99.90;;;;;;5030442;28;19924;-86
2022/03/04 10:12:07;;;;;;;;;;;2.50;99.90;;;;;;5027358;28;19917;-87
2022/03/04 10:14:33;;;;;;;;;;;2.50;99.90;;;;;;5002189;28;19979;-85
2022/03/04 10:16:59;;;;;;;;;;;2.80;99.90;;;;;;5002413;28;19913;-85
2022/03/04 10:19:25;;;;;;;;;;;2.90;99.90;;;;;;5028660;28;20467;-87
2022/03/04 10:21:52;;;;;;;;;;;3.00;99.90;;;;;;5013169;28;19913;-85
2022/03/04 10:24:19;;;;;;;;;;;3.00;99.90;;;;;;5029715;28;19982;-87
2022/03/04 10:26:45;;;;;;;;;;;3.10;99.90;;;;;;5012948;28;19917;-86
2022/03/04 10:29:19;;;;;;;;;;;3.20;99.90;;;;;;5027944;28;19917;-87
2022/03/04 10:32:04;;;;;;;;;;;3.30;99.90;;;;;;5012112;28;19917;-86
2022/03/04 10:34:42;;;;;;;;;;;3.40;99.90;;;;;;5012690;28;19963;-86
2022/03/04 10:37:07;;;;;;;;;;;3.40;99.90;;;;;;5028202;28;19948;-86
2022/03/04 10:39:33;;;;;;;;;;;3.40;99.90;;;;;;5010075;28;19983;-86
2022/03/04 10:41:58;;;;;;;;;;;3.40;99.90;;;;;;4995360;28;19918;-85
2022/03/04 10:44:24;;;;;;;;;;;3.40;99.90;;;;;;5005145;28;19925;-85
2022/03/04 10:46:54;;;;;;;;;;;3.40;99.90;;;;;;4998280;28;19913;-86
2022/03/04 10:49:27;;;;;;;;;;;3.50;99.90;;;;;;5003580;28;19920;-86
2022/03/04 10:52:05;;;;;;;;;;;3.60;99.90;;;;;;5007196;28;19921;-86
2022/03/04 10:54:30;;;;;;;;;;;3.70;99.90;;;;;;5016351;28;20058;-86
2022/03/04 10:56:56;;;;;;;;;;;3.80;99.90;;;;;;5010296;28;20399;-85
2022/03/04 10:59:22;;;;;;;;;;;3.80;99.90;;;;;;5011950;28;19921;-86
2022/03/04 11:01:49;;;;;;;;;;;3.90;99.90;;;;;;5009458;28;20390;-88
2022/03/04 11:04:16;;;;;;;;;;;4.00;99.90;;;;;;5002672;28;19968;-86
2022/03/04 11:06:45;;;;;;;;;;;4.00;99.90;;;;;;5007212;28;19924;-85
2022/03/04 11:09:12;;;;;;;;;;;4.00;99.90;;;;;;5010495;28;20004;-86
2022/03/04 11:11:39;;;;;;;;;;;3.90;99.90;;;;;;5026708;28;19924;-87
2022/03/04 11:14:06;;;;;;;;;;;3.90;99.90;;;;;;5000747;28;20383;-85
2022/03/04 11:16:31;;;;;;;;;;;3.90;99.90;;;;;;5009295;28;19925;-86
2022/03/04 11:18:57;;;;;;;;;;;4.00;99.90;;;;;;5009858;28;20368;-85
2022/03/04 11:21:23;;;;;;;;;;;4.10;99.90;;;;;;5021510;28;19914;-85
2022/03/04 11:23:48;;;;;;;;;;;4.10;99.90;;;;;;5021895;28;19920;-86
2022/03/04 11:26:17;;;;;;;;;;;4.10;99.90;;;;;;5001709;28;20024;-86
2022/03/04 11:28:44;;;;;;;;;;;4.10;99.90;;;;;;5034365;28;19920;-86
2022/03/04 11:31:11;;;;;;;;;;;4.10;99.90;;;;;;4998689;28;19967;-86
2022/03/04 11:33:36;;;;;;;;;;;4.20;99.90;;;;;;5029057;28;19921;-86
2022/03/04 11:36:13;;;;;;;;;;;4.30;99.90;;;;;;5030404;28;19916;-86
2022/03/04 11:38:51;;;;;;;;;;;4.30;99.90;;;;;;4996411;28;19913;-86
2022/03/04 11:41:18;;;;;;;;;;;4.40;99.90;;;;;;5013032;28;19959;-86
2022/03/04 11:43:50;;;;;;;;;;;4.40;99.90;;;;;;5003054;28;19913;-87
2022/03/04 11:46:20;;;;;;;;;;;4.40;99.90;;;;;;5013187;28;19917;-88
2022/03/04 11:48:46;;;;;;;;;;;4.50;99.90;;;;;;5010279;28;19930;-87
2022/03/04 11:51:20;;;;;;;;;;;4.50;99.90;;;;;;5013849;28;19917;-87
2022/03/04 11:54:07;;;;;;;;;;;4.50;99.90;;;;;;5014287;28;19922;-87
2022/03/04 11:56:52;;;;;;;;;;;4.40;99.90;;;;;;5013178;28;20024;-86
2022/03/04 11:59:21;;;;;;;;;;;4.50;99.90;;;;;;5007033;28;20392;-86
2022/03/04 12:01:47;;;;;;;;;;;4.60;99.90;;;;;;5019687;28;19966;-87
2022/03/04 12:04:15;;;;;;;;;;;4.60;99.90;;;;;;5017457;28;20291;-88
2022/03/04 12:06:42;;;;;;;;;;;4.60;99.90;;;;;;5029726;28;19917;-86
2022/03/04 12:09:24;;;;;;;;;;;4.80;99.90;;;;;;5012719;28;19917;-88
2022/03/04 12:12:08;;;;;;;;;;;4.90;99.90;;;;;;5025494;28;19997;-87
2022/03/04 12:14:34;;;;;;;;;;;5.00;99.90;;;;;;5011199;28;19913;-86
2022/03/04 12:17:00;;;;;;;;;;;5.10;99.90;;;;;;5026107;28;19920;-86
2022/03/04 12:19:30;;;;;;;;;;;5.10;99.90;;;;;;5031100;28;19917;-86
2022/03/04 12:21:59;;;;;;;;;;;4.80;99.90;;;;;;5009940;28;19918;-86
2022/03/04 12:24:28;;;;;;;;;;;4.70;99.90;;;;;;5031769;28;20330;-86
2022/03/04 12:26:56;;;;;;;;;;;4.50;99.90;;;;;;5025795;28;20199;-87
2022/03/04 12:29:24;;;;;;;;;;;4.50;99.90;;;;;;5029636;28;19965;-86
2022/03/04 12:31:54;;;;;;;;;;;4.70;99.90;;;;;;5011374;28;19951;-85
2022/03/04 12:34:21;;;;;;;;;;;4.70;99.90;;;;;;5015692;28;19913;-86
2022/03/04 12:36:47;;;;;;;;;;;4.70;99.90;;;;;;5015297;28;19913;-87
2022/03/04 12:39:16;;;;;;;;;;;4.60;99.90;;;;;;5010012;28;19913;-85
2022/03/04 12:41:41;;;;;;;;;;;4.60;99.90;;;;;;5004154;28;19920;-84
2022/03/04 12:44:08;;;;;;;;;;;4.60;99.90;;;;;;5030914;28;19913;-87
2022/03/04 12:46:35;;;;;;;;;;;4.70;99.90;;;;;;4993360;28;19917;-86
2022/03/04 12:49:02;;;;;;;;;;;4.80;99.90;;;;;;5009286;28;19971;-87
2022/03/04 12:51:28;;;;;;;;;;;5.00;99.90;;;;;;5028979;28;19914;-86
2022/03/04 12:53:55;;;;;;;;;;;5.20;99.90;;;;;;5030913;28;19913;-85
2022/03/04 12:56:22;;;;;;;;;;;5.30;99.90;;;;;;5007638;28;19920;-85
2022/03/04 12:58:49;;;;;;;;;;;5.20;99.90;;;;;;5026309;28;19913;-85
2022/03/04 13:01:16;;;;;;;;;;;5.20;98.60;;;;;;5011558;28;20030;-86
2022/03/04 13:03:49;;;;;;;;;;;5.20;99.90;;;;;;5004861;28;19914;-86
2022/03/04 13:06:15;;;;;;;;;;;5.30;99.50;;;;;;5022541;28;19917;-85
2022/03/04 13:08:52;;;;;;;;;;;5.30;99.20;;;;;;5013955;28;20479;-86
2022/03/04 13:11:20;;;;;;;;;;;5.40;98.00;;;;;;5031765;28;20315;-84
2022/03/04 13:13:50;;;;;;;;;;;5.30;97.50;;;;;;5029471;28;19917;-86
2022/03/04 13:16:25;;;;;;;;;;;5.30;99.10;;;;;;5014486;28;19945;-85
2022/03/04 13:18:51;;;;;;;;;;;5.40;99.10;;;;;;5025573;28;19996;-86
2022/03/04 13:21:17;;;;;;;;;;;5.60;99.90;;;;;;5012431;28;19918;-87
2022/03/04 13:23:51;;;;;;;;;;;5.80;99.30;;;;;;5015121;28;20012;-85
2022/03/04 13:26:19;;;;;;;;;;;5.80;99.30;;;;;;5013863;28;20375;-85
2022/03/04 13:28:51;;;;;;;;;;;5.90;98.40;;;;;;5010111;28;19913;-89
2022/03/04 13:31:21;;;;;;;;;;;5.80;98.00;;;;;;5025250;28;20008;-87
2022/03/04 13:33:46;;;;;;;;;;;5.80;98.10;;;;;;5029997;28;19976;-88
2022/03/04 13:36:12;;;;;;;;;;;5.70;98.40;;;;;;5029835;28;19917;-86
2022/03/04 13:38:40;;;;;;;;;;;5.60;98.00;;;;;;5012260;28;19925;-85
2022/03/04 13:41:21;;;;;;;;;;;5.50;98.50;;;;;;5029893;28;20518;-85
2022/03/04 13:43:46;;;;;;;;;;;5.40;98.00;;;;;;4996675;28;20020;-87
2022/03/04 13:46:12;;;;;;;;;;;5.30;98.80;;;;;;5029791;28;19967;-87
2022/03/04 13:48:38;;;;;;;;;;;5.30;98.80;;;;;;5011435;28;20515;-87
2022/03/04 13:51:10;;;;;;;;;;;5.20;98.20;;;;;;5029721;28;19919;-87
2022/03/04 13:53:54;;;;;;;;;;;5.10;98.50;;;;;;5009167;28;19925;-87
2022/03/04 13:56:20;;;;;;;;;;;5.10;97.80;;;;;;5029792;28;19921;-86
2022/03/04 13:58:54;;;;;;;;;;;5.10;97.30;;;;;;5008933;28;19918;-88
2022/03/04 14:01:20;;;;;;;;;;;5.00;98.10;;;;;;5025682;28;19917;-86
2022/03/04 14:03:50;;;;;;;;;;;5.00;99.40;;;;;;5029495;28;19970;-87
2022/03/04 14:06:17;;;;;;;;;;;5.00;98.40;;;;;;5009201;28;19978;-86
2022/03/04 14:08:43;;;;;;;;;;;5.00;97.60;;;;;;5028650;28;20009;-86
2022/03/04 14:11:10;;;;;;;;;;;4.90;98.00;;;;;;5012177;28;20011;-86
2022/03/04 14:13:36;;;;;;;;;;;4.90;98.80;;;;;;5027283;28;19917;-86
2022/03/04 14:16:02;;;;;;;;;;;5.00;97.60;;;;;;5011743;28;20473;-85
2022/03/04 14:18:29;;;;;;;;;;;4.90;97.90;;;;;;5011877;28;19913;-86
2022/03/04 14:20:57;;;;;;;;;;;4.90;97.60;;;;;;5012498;28;20383;-87